»·PEaware :: ASA101 KLAX-KSFO

ASA101 :: KLAX-KSFO

FLIGHT INFORMATION

Flight Status: Arrived
Operator:
Alaska Airlines
More flights by this operator :: More flights under this callsign
Pilot: John N. (18861)
Aircraft: BOEING 737-800
(B738)
More flights by this aircraft type
Origin: KLAX Los Angeles Intl
United States
Destination: KSFO San Francisco Intl
United States
More flights between these airports :: More routes between these airports
Route: SUMMR1 STOKD SERFR SERFR3
File this flight plan on PilotEdge
Remarks:
Altitude:
(Current/Filed)
360ft
Speed:
(Current/Filed)
515kts
Departed: 14-Apr-18 10:54 AM
Arrived: 14-Apr-18 11:52 AM
Distance/Time
Traveled:
293nm/0:58
Distance/Time
To Go:
Arrived

Flight Plot

Page will automatically refresh every two minutes.

Flight plan parsing failed; only flown route is shown


Map Options




Map Legend


Flown Route
Filed Route
Departure Airport
Arrival Airport
Navaid (VOR, NDB)
Fix

Horizontal Profiles

Position Reports

Time Latitude Longitude Heading Altitude Ground
Speed
14-Apr-18 10:41 33.947428 -118.401838 90 134ft 0kts
14-Apr-18 10:42 33.947428 -118.401837 90 134ft 0kts
14-Apr-18 10:43 33.947428 -118.401835 90 134ft 0kts
14-Apr-18 10:44 33.947428 -118.401834 90 134ft 0kts
14-Apr-18 10:45 33.947428 -118.401832 90 134ft 0kts
14-Apr-18 10:46 33.947428 -118.401831 90 134ft 0kts
14-Apr-18 10:47 33.947431 -118.402102 90 134ft 2kts
14-Apr-18 10:48 33.947434 -118.402376 90 134ft 0kts
14-Apr-18 10:49 33.947434 -118.402375 90 134ft 0kts
14-Apr-18 10:50 33.948383 -118.401178 57 134ft 12kts
14-Apr-18 10:51 33.951038 -118.401677 238 134ft 11kts
14-Apr-18 10:52 33.950971 -118.401774 225 134ft 0kts
14-Apr-18 10:53 33.949864 -118.405158 261 134ft 76kts
14-Apr-18 10:54 33.942444 -118.466393 261 1589ft 254kts
14-Apr-18 10:55 33.934891 -118.559644 264 3384ft 284kts
14-Apr-18 10:56 33.930524 -118.652652 268 3408ft 264kts
14-Apr-18 10:57 33.924146 -118.741985 264 4910ft 273kts
14-Apr-18 10:58 33.917071 -118.832737 266 5867ft 271kts
14-Apr-18 10:59 33.919537 -118.924926 271 8754ft 280kts
14-Apr-18 11:00 33.926951 -119.021072 290 11810ft 314kts
14-Apr-18 11:01 33.968958 -119.107100 301 13250ft 338kts
14-Apr-18 11:02 34.009859 -119.180494 311 15186ft 344kts
14-Apr-18 11:03 34.083020 -119.248967 322 17936ft 355kts
14-Apr-18 11:04 34.156299 -119.312119 322 20347ft 368kts
14-Apr-18 11:05 34.240973 -119.384962 321 22736ft 380kts
14-Apr-18 11:06 34.328478 -119.460756 320 24844ft 391kts
14-Apr-18 11:07 34.416291 -119.539805 314 26725ft 398kts
14-Apr-18 11:08 34.489296 -119.628370 311 28262ft 406kts
14-Apr-18 11:09 34.569489 -119.727545 311 29771ft 414kts
14-Apr-18 11:10 34.633357 -119.806671 311 30955ft 418kts
14-Apr-18 11:11 34.714438 -119.906794 311 32742ft 412kts
14-Apr-18 11:12 34.793883 -120.005346 311 34394ft 406kts
14-Apr-18 11:13 34.859740 -120.087343 311 35410ft 408kts
14-Apr-18 11:14 34.939368 -120.186500 310 36304ft 411kts
14-Apr-18 11:15 35.012397 -120.278137 310 36308ft 404kts
14-Apr-18 11:16 35.090788 -120.376633 311 36306ft 405kts
14-Apr-18 11:17 35.174074 -120.470060 313 36304ft 406kts
14-Apr-18 11:18 35.257367 -120.563130 313 36301ft 405kts
14-Apr-18 11:19 35.334130 -120.649168 313 36304ft 405kts
14-Apr-18 11:20 35.416926 -120.742773 312 36317ft 405kts
14-Apr-18 11:21 35.493708 -120.828548 316 36333ft 407kts
14-Apr-18 11:22 35.584748 -120.912822 318 36344ft 408kts
14-Apr-18 11:23 35.670347 -120.992070 317 36346ft 409kts
14-Apr-18 11:24 35.760910 -121.076492 317 36361ft 409kts
14-Apr-18 11:25 35.851579 -121.160769 317 34821ft 405kts
14-Apr-18 11:26 35.942639 -121.246155 317 31735ft 414kts
14-Apr-18 11:27 36.032564 -121.330912 317 29613ft 399kts
14-Apr-18 11:28 36.122461 -121.408195 322 27482ft 392kts
14-Apr-18 11:29 36.213394 -121.478200 322 25472ft 379kts
14-Apr-18 11:30 36.302061 -121.547071 322 23427ft 370kts
14-Apr-18 11:31 36.386828 -121.613629 322 21437ft 363kts
14-Apr-18 11:32 36.465437 -121.675575 322 20314ft 353kts
14-Apr-18 11:33 36.549668 -121.741902 322 19958ft 359kts
14-Apr-18 11:34 36.633049 -121.807958 323 18212ft 351kts
14-Apr-18 11:35 36.714997 -121.873091 323 16004ft 342kts
14-Apr-18 11:36 36.804933 -121.912563 344 14201ft 345kts
14-Apr-18 11:37 36.897358 -121.937739 344 12148ft 334kts
14-Apr-18 11:38 36.986368 -121.965225 340 11397ft 312kts
14-Apr-18 11:39 37.067606 -121.997775 341 9792ft 309kts
14-Apr-18 11:40 37.148625 -122.029728 342 8277ft 285kts
14-Apr-18 11:41 37.220493 -122.057957 342 8123ft 267kts
14-Apr-18 11:42 37.290615 -122.085503 342 8035ft 249kts
14-Apr-18 11:43 37.357070 -122.111693 342 6233ft 261kts
14-Apr-18 11:44 37.426121 -122.136357 344 5929ft 261kts
14-Apr-18 11:45 37.489893 -122.158200 344 4407ft 200kts
14-Apr-18 11:46 37.534521 -122.182050 307 3102ft 156kts
14-Apr-18 11:47 37.556543 -122.227324 299 2289ft 147kts
14-Apr-18 11:48 37.575564 -122.272287 299 1534ft 148kts
14-Apr-18 11:49 37.594158 -122.316544 298 759ft 138kts
14-Apr-18 11:50 37.611986 -122.359011 299 40ft 136kts
14-Apr-18 11:51 37.618960 -122.377667 268 20ft 1kts
14-Apr-18 11:52 37.618919 -122.379292 262 20ft 8kts
14-Apr-18 11:53 37.617357 -122.380534 252 20ft 0kts

Navigation Log

Ident Type
Flight plan parsing failed, navigation log unavailable